Marietta, Mississippi
Current Conditions -  °F | °C
As of 7:53 PM on Wednesday 22 Oct 2014 (Local Time) from KTUP Reporting Station
Clear Clear  
Wind Chill: 55°   Ceiling: Unl
Heat Index: 55°   Visibility: 10mi
Dew Point: 45°   Wind: 3mph
Humidity: 69%   Direction: 360°N
Pressure: 30.16"   Gusts: NA
Location:  34.5°N, 88.47°W
Report Text: KTUP 230053Z 36003KT 10SM CLR 13/07 A3016 RMK AO2 SLP213 T01280072
Loading
Personal Weather Stations






























Interactive Weather Map
Tropical Storm Tracking
New forecast layout! Learn more

10-Day Weather Forecast

Advertisements
Track Severe Weather on mobile